sensor_id;sensor_type;location;lat;lon;timestamp;temperature;humidity
12130;DHT22;6128;59.340;18.040;2023-11-25T00:00:44;-0.70;99.90
12130;DHT22;6128;59.340;18.040;2023-11-25T00:03:11;-0.70;99.90
12130;DHT22;6128;59.340;18.040;2023-11-25T00:05:38;-0.70;99.90
12130;DHT22;6128;59.340;18.040;2023-11-25T00:08:06;-0.70;99.90
12130;DHT22;6128;59.340;18.040;2023-11-25T00:10:33;-0.70;99.90
12130;DHT22;6128;59.340;18.040;2023-11-25T00:13:02;-0.70;99.90
12130;DHT22;6128;59.340;18.040;2023-11-25T00:15:29;-0.70;99.90
12130;DHT22;6128;59.340;18.040;2023-11-25T00:17:56;-0.70;99.90
12130;DHT22;6128;59.340;18.040;2023-11-25T00:20:23;-0.70;99.90
12130;DHT22;6128;59.340;18.040;2023-11-25T00:22:51;-0.70;99.90
12130;DHT22;6128;59.340;18.040;2023-11-25T00:25:18;-0.70;99.90
12130;DHT22;6128;59.340;18.040;2023-11-25T00:27:45;-0.70;99.90
12130;DHT22;6128;59.340;18.040;2023-11-25T00:30:14;-0.70;99.90
12130;DHT22;6128;59.340;18.040;2023-11-25T00:32:41;-0.70;99.90
12130;DHT22;6128;59.340;18.040;2023-11-25T00:35:12;-0.70;99.90
12130;DHT22;6128;59.340;18.040;2023-11-25T00:37:39;-0.70;99.90
12130;DHT22;6128;59.340;18.040;2023-11-25T00:40:07;-0.70;99.90
12130;DHT22;6128;59.340;18.040;2023-11-25T00:42:36;-0.80;99.90
12130;DHT22;6128;59.340;18.040;2023-11-25T00:45:06;-0.80;99.90
12130;DHT22;6128;59.340;18.040;2023-11-25T00:47:35;-0.80;99.90
12130;DHT22;6128;59.340;18.040;2023-11-25T00:50:06;-0.80;99.90
12130;DHT22;6128;59.340;18.040;2023-11-25T00:52:34;-0.80;99.90
12130;DHT22;6128;59.340;18.040;2023-11-25T00:55:08;-0.80;99.90
12130;DHT22;6128;59.340;18.040;2023-11-25T00:57:36;-0.80;99.90
12130;DHT22;6128;59.340;18.040;2023-11-25T01:00:04;-0.90;99.90
12130;DHT22;6128;59.340;18.040;2023-11-25T01:02:31;-0.90;99.90
12130;DHT22;6128;59.340;18.040;2023-11-25T01:05:00;-0.90;99.90
12130;DHT22;6128;59.340;18.040;2023-11-25T01:07:26;-0.90;99.90
12130;DHT22;6128;59.340;18.040;2023-11-25T01:09:54;-1.00;99.90
12130;DHT22;6128;59.340;18.040;2023-11-25T01:12:22;-1.00;99.90
12130;DHT22;6128;59.340;18.040;2023-11-25T01:14:49;-0.90;99.90
12130;DHT22;6128;59.340;18.040;2023-11-25T01:17:16;-0.90;99.90
12130;DHT22;6128;59.340;18.040;2023-11-25T01:19:43;-0.90;99.90
12130;DHT22;6128;59.340;18.040;2023-11-25T01:22:11;-0.90;99.90
12130;DHT22;6128;59.340;18.040;2023-11-25T01:24:38;-1.00;99.90
12130;DHT22;6128;59.340;18.040;2023-11-25T01:27:05;-1.00;99.90
12130;DHT22;6128;59.340;18.040;2023-11-25T01:29:33;-1.00;99.90
12130;DHT22;6128;59.340;18.040;2023-11-25T01:32:00;-1.00;99.90
12130;DHT22;6128;59.340;18.040;2023-11-25T01:34:27;-1.00;99.90
12130;DHT22;6128;59.340;18.040;2023-11-25T01:37:00;-1.00;99.90
12130;DHT22;6128;59.340;18.040;2023-11-25T01:39:32;-1.10;99.90
12130;DHT22;6128;59.340;18.040;2023-11-25T01:41:59;-1.00;99.90
12130;DHT22;6128;59.340;18.040;2023-11-25T01:44:27;-1.10;99.90
12130;DHT22;6128;59.340;18.040;2023-11-25T01:46:54;-1.10;99.90
12130;DHT22;6128;59.340;18.040;2023-11-25T01:49:21;-1.10;99.90
12130;DHT22;6128;59.340;18.040;2023-11-25T01:51:50;-1.10;99.90
12130;DHT22;6128;59.340;18.040;2023-11-25T01:54:20;-1.10;99.90
12130;DHT22;6128;59.340;18.040;2023-11-25T01:56:55;-1.10;99.90
12130;DHT22;6128;59.340;18.040;2023-11-25T01:59:25;-1.20;99.90
12130;DHT22;6128;59.340;18.040;2023-11-25T02:01:54;-1.20;99.90
12130;DHT22;6128;59.340;18.040;2023-11-25T02:04:21;-1.20;99.90
12130;DHT22;6128;59.340;18.040;2023-11-25T02:06:48;-1.10;99.90
12130;DHT22;6128;59.340;18.040;2023-11-25T02:09:15;-1.20;99.90
12130;DHT22;6128;59.340;18.040;2023-11-25T02:11:55;-1.20;99.90
12130;DHT22;6128;59.340;18.040;2023-11-25T02:14:22;-1.20;99.90
12130;DHT22;6128;59.340;18.040;2023-11-25T02:16:50;-1.20;99.90
12130;DHT22;6128;59.340;18.040;2023-11-25T02:19:18;-1.20;99.90
12130;DHT22;6128;59.340;18.040;2023-11-25T02:21:46;-1.30;99.90
12130;DHT22;6128;59.340;18.040;2023-11-25T02:24:15;-1.30;99.90
12130;DHT22;6128;59.340;18.040;2023-11-25T02:26:42;-1.20;99.90
12130;DHT22;6128;59.340;18.040;2023-11-25T02:29:09;-1.20;99.90
12130;DHT22;6128;59.340;18.040;2023-11-25T02:31:37;-1.20;99.90
12130;DHT22;6128;59.340;18.040;2023-11-25T02:34:05;-1.20;99.90
12130;DHT22;6128;59.340;18.040;2023-11-25T02:36:33;-1.20;99.90
12130;DHT22;6128;59.340;18.040;2023-11-25T02:39:00;-1.20;99.90
12130;DHT22;6128;59.340;18.040;2023-11-25T02:41:29;-1.20;99.90
12130;DHT22;6128;59.340;18.040;2023-11-25T02:43:56;-1.30;99.90
12130;DHT22;6128;59.340;18.040;2023-11-25T02:46:24;-1.30;99.90
12130;DHT22;6128;59.340;18.040;2023-11-25T02:48:51;-1.30;99.90
12130;DHT22;6128;59.340;18.040;2023-11-25T02:51:18;-1.30;99.90
12130;DHT22;6128;59.340;18.040;2023-11-25T02:53:45;-1.30;99.90
12130;DHT22;6128;59.340;18.040;2023-11-25T02:56:13;-1.30;99.90
12130;DHT22;6128;59.340;18.040;2023-11-25T02:58:43;-1.40;99.90
12130;DHT22;6128;59.340;18.040;2023-11-25T03:01:11;-1.40;99.90
12130;DHT22;6128;59.340;18.040;2023-11-25T03:03:39;-1.40;99.90
12130;DHT22;6128;59.340;18.040;2023-11-25T03:06:13;-1.40;99.90
12130;DHT22;6128;59.340;18.040;2023-11-25T03:08:41;-1.40;99.90
12130;DHT22;6128;59.340;18.040;2023-11-25T03:11:09;-1.50;99.90
12130;DHT22;6128;59.340;18.040;2023-11-25T03:13:42;-1.50;99.90
12130;DHT22;6128;59.340;18.040;2023-11-25T03:16:10;-1.40;99.90
12130;DHT22;6128;59.340;18.040;2023-11-25T03:18:37;-1.40;99.90
12130;DHT22;6128;59.340;18.040;2023-11-25T03:21:05;-1.40;99.90
12130;DHT22;6128;59.340;18.040;2023-11-25T03:23:35;-1.50;99.90
12130;DHT22;6128;59.340;18.040;2023-11-25T03:26:03;-1.50;99.90
12130;DHT22;6128;59.340;18.040;2023-11-25T03:28:31;-1.50;99.90
12130;DHT22;6128;59.340;18.040;2023-11-25T03:31:03;-1.60;99.90
12130;DHT22;6128;59.340;18.040;2023-11-25T03:33:30;-1.70;99.90
12130;DHT22;6128;59.340;18.040;2023-11-25T03:36:04;-1.70;99.90
12130;DHT22;6128;59.340;18.040;2023-11-25T03:38:31;-1.80;99.90
12130;DHT22;6128;59.340;18.040;2023-11-25T03:40:59;-1.80;99.90
12130;DHT22;6128;59.340;18.040;2023-11-25T03:43:27;-1.90;99.90
12130;DHT22;6128;59.340;18.040;2023-11-25T03:45:55;-2.00;99.90
12130;DHT22;6128;59.340;18.040;2023-11-25T03:48:24;-2.10;99.90
12130;DHT22;6128;59.340;18.040;2023-11-25T03:50:51;-2.10;99.90
12130;DHT22;6128;59.340;18.040;2023-11-25T03:53:18;-2.20;99.90
12130;DHT22;6128;59.340;18.040;2023-11-25T03:55:45;-2.20;99.90
12130;DHT22;6128;59.340;18.040;2023-11-25T03:58:12;-2.20;99.90
12130;DHT22;6128;59.340;18.040;2023-11-25T04:00:40;-2.20;99.90
12130;DHT22;6128;59.340;18.040;2023-11-25T04:03:06;-2.30;99.90
12130;DHT22;6128;59.340;18.040;2023-11-25T04:05:35;-2.40;99.90
12130;DHT22;6128;59.340;18.040;2023-11-25T04:08:03;-2.40;99.90
12130;DHT22;6128;59.340;18.040;2023-11-25T04:10:30;-2.40;99.90
12130;DHT22;6128;59.340;18.040;2023-11-25T04:12:57;-2.40;99.90
12130;DHT22;6128;59.340;18.040;2023-11-25T04:15:24;-2.40;99.90
12130;DHT22;6128;59.340;18.040;2023-11-25T04:17:51;-2.50;99.90
12130;DHT22;6128;59.340;18.040;2023-11-25T04:20:19;-2.50;99.90
12130;DHT22;6128;59.340;18.040;2023-11-25T04:22:55;-2.50;99.90
12130;DHT22;6128;59.340;18.040;2023-11-25T04:25:25;-2.60;99.90
12130;DHT22;6128;59.340;18.040;2023-11-25T04:27:52;-2.60;99.90
12130;DHT22;6128;59.340;18.040;2023-11-25T04:30:19;-2.60;99.90
12130;DHT22;6128;59.340;18.040;2023-11-25T04:32:47;-2.60;99.90
12130;DHT22;6128;59.340;18.040;2023-11-25T04:35:15;-2.70;99.90
12130;DHT22;6128;59.340;18.040;2023-11-25T04:37:43;-2.60;99.90
12130;DHT22;6128;59.340;18.040;2023-11-25T04:40:12;-2.60;99.90
12130;DHT22;6128;59.340;18.040;2023-11-25T04:42:40;-2.60;99.90
12130;DHT22;6128;59.340;18.040;2023-11-25T04:45:07;-2.60;99.90
12130;DHT22;6128;59.340;18.040;2023-11-25T04:47:42;-2.60;99.90
12130;DHT22;6128;59.340;18.040;2023-11-25T04:50:11;-2.60;99.90
12130;DHT22;6128;59.340;18.040;2023-11-25T04:52:38;-2.70;99.90
12130;DHT22;6128;59.340;18.040;2023-11-25T04:55:06;-2.70;99.90
12130;DHT22;6128;59.340;18.040;2023-11-25T04:57:35;-2.60;99.90
12130;DHT22;6128;59.340;18.040;2023-11-25T05:00:03;-2.70;99.90
12130;DHT22;6128;59.340;18.040;2023-11-25T05:02:34;-2.60;99.90
12130;DHT22;6128;59.340;18.040;2023-11-25T05:05:02;-2.60;99.90
12130;DHT22;6128;59.340;18.040;2023-11-25T05:07:30;-2.70;99.90
12130;DHT22;6128;59.340;18.040;2023-11-25T05:09:57;-2.70;99.90
12130;DHT22;6128;59.340;18.040;2023-11-25T05:12:24;-2.70;99.90
12130;DHT22;6128;59.340;18.040;2023-11-25T05:14:52;-2.80;99.90
12130;DHT22;6128;59.340;18.040;2023-11-25T05:17:19;-2.80;99.90
12130;DHT22;6128;59.340;18.040;2023-11-25T05:19:47;-2.80;99.90
12130;DHT22;6128;59.340;18.040;2023-11-25T05:22:14;-2.80;99.90
12130;DHT22;6128;59.340;18.040;2023-11-25T05:24:41;-2.80;99.90
12130;DHT22;6128;59.340;18.040;2023-11-25T05:27:08;-2.80;99.90
12130;DHT22;6128;59.340;18.040;2023-11-25T05:29:35;-2.80;99.90
12130;DHT22;6128;59.340;18.040;2023-11-25T05:32:04;-2.70;99.90
12130;DHT22;6128;59.340;18.040;2023-11-25T05:34:33;-2.80;99.90
12130;DHT22;6128;59.340;18.040;2023-11-25T05:37:01;-2.70;99.90
12130;DHT22;6128;59.340;18.040;2023-11-25T05:39:28;-2.70;99.90
12130;DHT22;6128;59.340;18.040;2023-11-25T05:41:55;-2.70;99.90
12130;DHT22;6128;59.340;18.040;2023-11-25T05:44:22;-2.60;99.90
12130;DHT22;6128;59.340;18.040;2023-11-25T05:46:53;-2.60;99.90
12130;DHT22;6128;59.340;18.040;2023-11-25T05:49:22;-2.60;99.90
12130;DHT22;6128;59.340;18.040;2023-11-25T05:51:49;-2.50;99.90
12130;DHT22;6128;59.340;18.040;2023-11-25T05:54:16;-2.50;99.90
12130;DHT22;6128;59.340;18.040;2023-11-25T05:56:44;-2.40;99.90
12130;DHT22;6128;59.340;18.040;2023-11-25T05:59:14;-2.40;99.90
12130;DHT22;6128;59.340;18.040;2023-11-25T06:01:42;-2.40;99.90
12130;DHT22;6128;59.340;18.040;2023-11-25T06:04:09;-2.30;99.90
12130;DHT22;6128;59.340;18.040;2023-11-25T06:06:38;-2.30;99.90
12130;DHT22;6128;59.340;18.040;2023-11-25T06:09:05;-2.30;99.90
12130;DHT22;6128;59.340;18.040;2023-11-25T06:11:37;-2.20;99.90
12130;DHT22;6128;59.340;18.040;2023-11-25T06:14:04;-2.20;99.90
12130;DHT22;6128;59.340;18.040;2023-11-25T06:16:32;-2.20;99.90
12130;DHT22;6128;59.340;18.040;2023-11-25T06:19:00;-2.20;99.90
12130;DHT22;6128;59.340;18.040;2023-11-25T06:21:29;-2.30;99.90
12130;DHT22;6128;59.340;18.040;2023-11-25T06:23:58;-2.30;99.90
12130;DHT22;6128;59.340;18.040;2023-11-25T06:26:26;-2.40;99.90
12130;DHT22;6128;59.340;18.040;2023-11-25T06:28:53;-2.40;99.90
12130;DHT22;6128;59.340;18.040;2023-11-25T06:31:20;-2.50;99.90
12130;DHT22;6128;59.340;18.040;2023-11-25T06:33:47;-2.50;99.90
12130;DHT22;6128;59.340;18.040;2023-11-25T06:36:15;-2.50;99.90
12130;DHT22;6128;59.340;18.040;2023-11-25T06:38:42;-2.50;99.90
12130;DHT22;6128;59.340;18.040;2023-11-25T06:41:11;-2.50;99.90
12130;DHT22;6128;59.340;18.040;2023-11-25T06:43:38;-2.50;99.90
12130;DHT22;6128;59.340;18.040;2023-11-25T06:46:05;-2.50;99.90
12130;DHT22;6128;59.340;18.040;2023-11-25T06:48:32;-2.40;99.90
12130;DHT22;6128;59.340;18.040;2023-11-25T06:51:00;-2.40;99.90
12130;DHT22;6128;59.340;18.040;2023-11-25T06:53:27;-2.40;99.90
12130;DHT22;6128;59.340;18.040;2023-11-25T06:55:56;-2.30;99.90
12130;DHT22;6128;59.340;18.040;2023-11-25T06:58:25;-2.30;99.90
12130;DHT22;6128;59.340;18.040;2023-11-25T07:00:53;-2.30;99.90
12130;DHT22;6128;59.340;18.040;2023-11-25T07:03:23;-2.30;99.90
12130;DHT22;6128;59.340;18.040;2023-11-25T07:05:50;-2.20;99.90
12130;DHT22;6128;59.340;18.040;2023-11-25T07:08:17;-2.20;99.90
12130;DHT22;6128;59.340;18.040;2023-11-25T07:10:44;-2.20;99.90
12130;DHT22;6128;59.340;18.040;2023-11-25T07:13:19;-2.20;99.90
12130;DHT22;6128;59.340;18.040;2023-11-25T07:15:48;-2.20;99.90
12130;DHT22;6128;59.340;18.040;2023-11-25T07:18:17;-2.30;99.90
12130;DHT22;6128;59.340;18.040;2023-11-25T07:20:45;-2.30;99.90
12130;DHT22;6128;59.340;18.040;2023-11-25T07:23:12;-2.30;99.90
12130;DHT22;6128;59.340;18.040;2023-11-25T07:25:40;-2.30;99.90
12130;DHT22;6128;59.340;18.040;2023-11-25T07:28:10;-2.30;99.90
12130;DHT22;6128;59.340;18.040;2023-11-25T07:30:37;-2.30;99.90
12130;DHT22;6128;59.340;18.040;2023-11-25T07:33:09;-2.30;99.90
12130;DHT22;6128;59.340;18.040;2023-11-25T07:35:36;-2.40;99.90
12130;DHT22;6128;59.340;18.040;2023-11-25T07:38:02;-2.40;99.90
12130;DHT22;6128;59.340;18.040;2023-11-25T07:40:29;-2.30;99.90
12130;DHT22;6128;59.340;18.040;2023-11-25T07:42:56;-2.40;99.90
12130;DHT22;6128;59.340;18.040;2023-11-25T07:45:24;-2.50;99.90
12130;DHT22;6128;59.340;18.040;2023-11-25T07:47:51;-2.50;99.90
12130;DHT22;6128;59.340;18.040;2023-11-25T07:50:20;-2.50;99.90
12130;DHT22;6128;59.340;18.040;2023-11-25T07:52:49;-2.60;99.90
12130;DHT22;6128;59.340;18.040;2023-11-25T07:55:16;-2.70;99.90
12130;DHT22;6128;59.340;18.040;2023-11-25T07:57:43;-2.70;99.90
12130;DHT22;6128;59.340;18.040;2023-11-25T08:00:13;-2.70;99.90
12130;DHT22;6128;59.340;18.040;2023-11-25T08:02:41;-2.80;99.90
12130;DHT22;6128;59.340;18.040;2023-11-25T08:05:09;-2.90;99.90
12130;DHT22;6128;59.340;18.040;2023-11-25T08:07:37;-2.80;99.90
12130;DHT22;6128;59.340;18.040;2023-11-25T08:10:05;-2.90;99.90
12130;DHT22;6128;59.340;18.040;2023-11-25T08:12:33;-2.90;99.90
12130;DHT22;6128;59.340;18.040;2023-11-25T08:15:00;-3.00;99.90
12130;DHT22;6128;59.340;18.040;2023-11-25T08:17:28;-3.00;99.90
12130;DHT22;6128;59.340;18.040;2023-11-25T08:19:55;-3.00;99.90
12130;DHT22;6128;59.340;18.040;2023-11-25T08:22:22;-2.90;99.90
12130;DHT22;6128;59.340;18.040;2023-11-25T08:24:51;-3.00;99.90
12130;DHT22;6128;59.340;18.040;2023-11-25T08:27:21;-3.00;99.90
12130;DHT22;6128;59.340;18.040;2023-11-25T08:29:48;-3.10;99.90
12130;DHT22;6128;59.340;18.040;2023-11-25T08:32:15;-3.10;99.90
12130;DHT22;6128;59.340;18.040;2023-11-25T08:34:42;-3.10;99.90
12130;DHT22;6128;59.340;18.040;2023-11-25T08:37:09;-3.10;99.90
12130;DHT22;6128;59.340;18.040;2023-11-25T08:39:36;-3.20;99.90
12130;DHT22;6128;59.340;18.040;2023-11-25T08:42:06;-3.20;99.90
12130;DHT22;6128;59.340;18.040;2023-11-25T08:44:35;-3.20;99.90
12130;DHT22;6128;59.340;18.040;2023-11-25T08:47:03;-3.30;99.90
12130;DHT22;6128;59.340;18.040;2023-11-25T08:49:33;-3.30;99.90
12130;DHT22;6128;59.340;18.040;2023-11-25T08:52:00;-3.30;99.90
12130;DHT22;6128;59.340;18.040;2023-11-25T08:54:27;-3.40;99.90
12130;DHT22;6128;59.340;18.040;2023-11-25T08:57:02;-3.40;99.90
12130;DHT22;6128;59.340;18.040;2023-11-25T08:59:30;-3.50;99.90
12130;DHT22;6128;59.340;18.040;2023-11-25T09:01:59;-3.60;99.90
12130;DHT22;6128;59.340;18.040;2023-11-25T09:04:29;-3.60;99.90
12130;DHT22;6128;59.340;18.040;2023-11-25T09:07:01;-3.60;99.90
12130;DHT22;6128;59.340;18.040;2023-11-25T09:09:28;-3.60;99.90
12130;DHT22;6128;59.340;18.040;2023-11-25T09:11:55;-3.60;99.90
12130;DHT22;6128;59.340;18.040;2023-11-25T09:14:23;-3.60;99.90
12130;DHT22;6128;59.340;18.040;2023-11-25T09:16:52;-3.60;99.90
12130;DHT22;6128;59.340;18.040;2023-11-25T09:19:20;-3.60;99.90
12130;DHT22;6128;59.340;18.040;2023-11-25T09:21:49;-3.70;99.90
12130;DHT22;6128;59.340;18.040;2023-11-25T09:24:16;-3.70;99.90
12130;DHT22;6128;59.340;18.040;2023-11-25T09:26:43;-3.60;99.90
12130;DHT22;6128;59.340;18.040;2023-11-25T09:29:12;-3.70;99.90
12130;DHT22;6128;59.340;18.040;2023-11-25T09:31:39;-3.80;99.90
12130;DHT22;6128;59.340;18.040;2023-11-25T09:34:07;-3.70;99.90
12130;DHT22;6128;59.340;18.040;2023-11-25T09:36:34;-3.70;99.90
12130;DHT22;6128;59.340;18.040;2023-11-25T09:39:01;-3.70;99.90
12130;DHT22;6128;59.340;18.040;2023-11-25T09:41:29;-3.60;99.90
12130;DHT22;6128;59.340;18.040;2023-11-25T09:43:58;-3.60;99.90
12130;DHT22;6128;59.340;18.040;2023-11-25T09:46:29;-3.50;99.90
12130;DHT22;6128;59.340;18.040;2023-11-25T09:48:56;-3.50;99.90
12130;DHT22;6128;59.340;18.040;2023-11-25T09:51:26;-3.40;99.90
12130;DHT22;6128;59.340;18.040;2023-11-25T09:54:03;-3.40;99.90
12130;DHT22;6128;59.340;18.040;2023-11-25T09:56:34;-3.30;99.90
12130;DHT22;6128;59.340;18.040;2023-11-25T09:59:04;-3.20;99.90
12130;DHT22;6128;59.340;18.040;2023-11-25T10:01:33;-3.20;99.90
12130;DHT22;6128;59.340;18.040;2023-11-25T10:04:01;-3.10;99.90
12130;DHT22;6128;59.340;18.040;2023-11-25T10:06:30;-3.10;99.90
12130;DHT22;6128;59.340;18.040;2023-11-25T10:08:57;-3.00;99.90
12130;DHT22;6128;59.340;18.040;2023-11-25T10:11:25;-3.10;99.90
12130;DHT22;6128;59.340;18.040;2023-11-25T10:13:56;-3.20;99.90
12130;DHT22;6128;59.340;18.040;2023-11-25T10:16:26;-3.10;99.90
12130;DHT22;6128;59.340;18.040;2023-11-25T10:18:54;-3.20;99.90
12130;DHT22;6128;59.340;18.040;2023-11-25T10:21:22;-3.20;99.90
12130;DHT22;6128;59.340;18.040;2023-11-25T10:23:51;-3.30;99.90
12130;DHT22;6128;59.340;18.040;2023-11-25T10:26:20;-3.30;99.90
12130;DHT22;6128;59.340;18.040;2023-11-25T10:28:48;-3.30;99.90
12130;DHT22;6128;59.340;18.040;2023-11-25T10:31:15;-3.30;99.90
12130;DHT22;6128;59.340;18.040;2023-11-25T10:33:44;-3.40;99.90
12130;DHT22;6128;59.340;18.040;2023-11-25T10:36:11;-3.30;99.90
12130;DHT22;6128;59.340;18.040;2023-11-25T10:38:41;-3.30;99.90
12130;DHT22;6128;59.340;18.040;2023-11-25T10:41:11;-3.30;99.90
12130;DHT22;6128;59.340;18.040;2023-11-25T10:43:38;-3.20;99.90
12130;DHT22;6128;59.340;18.040;2023-11-25T10:46:06;-3.20;99.90
12130;DHT22;6128;59.340;18.040;2023-11-25T10:48:34;-3.10;99.90
12130;DHT22;6128;59.340;18.040;2023-11-25T10:51:02;-3.20;99.90
12130;DHT22;6128;59.340;18.040;2023-11-25T10:53:30;-3.20;99.90
12130;DHT22;6128;59.340;18.040;2023-11-25T10:55:58;-3.20;99.90
12130;DHT22;6128;59.340;18.040;2023-11-25T10:58:27;-3.20;99.90
12130;DHT22;6128;59.340;18.040;2023-11-25T11:00:55;-3.30;99.90
12130;DHT22;6128;59.340;18.040;2023-11-25T11:03:34;-3.30;99.90
12130;DHT22;6128;59.340;18.040;2023-11-25T11:06:07;-3.30;99.90
12130;DHT22;6128;59.340;18.040;2023-11-25T11:08:38;-3.30;99.90
12130;DHT22;6128;59.340;18.040;2023-11-25T11:11:14;-3.20;99.90
12130;DHT22;6128;59.340;18.040;2023-11-25T11:13:52;-3.30;99.90
12130;DHT22;6128;59.340;18.040;2023-11-25T11:16:29;-3.30;99.90
12130;DHT22;6128;59.340;18.040;2023-11-25T11:19:00;-3.30;99.90
12130;DHT22;6128;59.340;18.040;2023-11-25T11:21:34;-3.30;99.90
12130;DHT22;6128;59.340;18.040;2023-11-25T11:24:01;-3.30;99.90
12130;DHT22;6128;59.340;18.040;2023-11-25T11:26:32;-3.30;99.90
12130;DHT22;6128;59.340;18.040;2023-11-25T11:29:09;-3.20;99.90
12130;DHT22;6128;59.340;18.040;2023-11-25T11:31:57;-3.20;99.90
12130;DHT22;6128;59.340;18.040;2023-11-25T11:34:25;-3.20;99.90
12130;DHT22;6128;59.340;18.040;2023-11-25T11:36:53;-3.10;99.90
12130;DHT22;6128;59.340;18.040;2023-11-25T11:39:31;-3.10;99.90
12130;DHT22;6128;59.340;18.040;2023-11-25T11:42:23;-3.10;99.90
12130;DHT22;6128;59.340;18.040;2023-11-25T11:44:59;-3.10;99.90
12130;DHT22;6128;59.340;18.040;2023-11-25T11:47:44;-3.00;99.90
12130;DHT22;6128;59.340;18.040;2023-11-25T11:50:16;-2.90;99.90
12130;DHT22;6128;59.340;18.040;2023-11-25T11:52:45;-2.90;99.90
12130;DHT22;6128;59.340;18.040;2023-11-25T11:55:40;-2.80;99.90
12130;DHT22;6128;59.340;18.040;2023-11-25T11:58:09;-2.80;99.90
12130;DHT22;6128;59.340;18.040;2023-11-25T12:00:47;-2.80;99.90
12130;DHT22;6128;59.340;18.040;2023-11-25T12:03:15;-2.70;99.90
12130;DHT22;6128;59.340;18.040;2023-11-25T12:05:43;-2.70;99.90
12130;DHT22;6128;59.340;18.040;2023-11-25T12:08:10;-2.70;99.90
12130;DHT22;6128;59.340;18.040;2023-11-25T12:10:37;-2.70;99.90
12130;DHT22;6128;59.340;18.040;2023-11-25T12:13:05;-2.70;99.90
12130;DHT22;6128;59.340;18.040;2023-11-25T12:15:34;-2.70;99.90
12130;DHT22;6128;59.340;18.040;2023-11-25T12:18:03;-2.80;99.90
12130;DHT22;6128;59.340;18.040;2023-11-25T12:20:31;-2.90;99.90
12130;DHT22;6128;59.340;18.040;2023-11-25T12:23:05;-3.00;99.90
12130;DHT22;6128;59.340;18.040;2023-11-25T12:25:35;-2.90;99.90
12130;DHT22;6128;59.340;18.040;2023-11-25T12:28:06;-3.00;99.90
12130;DHT22;6128;59.340;18.040;2023-11-25T12:30:34;-3.00;99.90
12130;DHT22;6128;59.340;18.040;2023-11-25T12:33:04;-3.10;99.90
12130;DHT22;6128;59.340;18.040;2023-11-25T12:35:33;-3.10;99.90
12130;DHT22;6128;59.340;18.040;2023-11-25T12:38:00;-3.10;99.90
12130;DHT22;6128;59.340;18.040;2023-11-25T12:40:27;-3.10;99.90
12130;DHT22;6128;59.340;18.040;2023-11-25T12:42:55;-3.10;99.90
12130;DHT22;6128;59.340;18.040;2023-11-25T12:45:32;-3.10;99.90
12130;DHT22;6128;59.340;18.040;2023-11-25T12:48:00;-3.10;99.90
12130;DHT22;6128;59.340;18.040;2023-11-25T12:50:29;-3.10;99.90
12130;DHT22;6128;59.340;18.040;2023-11-25T12:53:04;-3.10;99.90
12130;DHT22;6128;59.340;18.040;2023-11-25T12:55:41;-3.10;99.90
12130;DHT22;6128;59.340;18.040;2023-11-25T12:58:11;-3.20;99.90
12130;DHT22;6128;59.340;18.040;2023-11-25T13:00:44;-3.30;99.90
12130;DHT22;6128;59.340;18.040;2023-11-25T13:03:20;-3.30;99.90
12130;DHT22;6128;59.340;18.040;2023-11-25T13:05:49;-3.30;99.90
12130;DHT22;6128;59.340;18.040;2023-11-25T13:08:22;-3.30;99.90
12130;DHT22;6128;59.340;18.040;2023-11-25T13:10:49;-3.30;99.90
12130;DHT22;6128;59.340;18.040;2023-11-25T13:13:16;-3.30;99.90
12130;DHT22;6128;59.340;18.040;2023-11-25T13:15:45;-3.40;99.90
12130;DHT22;6128;59.340;18.040;2023-11-25T13:18:12;-3.40;99.90
12130;DHT22;6128;59.340;18.040;2023-11-25T13:20:40;-3.40;99.90
12130;DHT22;6128;59.340;18.040;2023-11-25T13:23:10;-3.40;99.90
12130;DHT22;6128;59.340;18.040;2023-11-25T13:25:37;-3.40;99.90
12130;DHT22;6128;59.340;18.040;2023-11-25T13:28:04;-3.40;99.90
12130;DHT22;6128;59.340;18.040;2023-11-25T13:30:34;-3.50;99.90
12130;DHT22;6128;59.340;18.040;2023-11-25T13:33:02;-3.50;99.90
12130;DHT22;6128;59.340;18.040;2023-11-25T13:35:29;-3.50;99.90
12130;DHT22;6128;59.340;18.040;2023-11-25T13:37:57;-3.40;99.90
12130;DHT22;6128;59.340;18.040;2023-11-25T13:40:26;-3.40;99.90
12130;DHT22;6128;59.340;18.040;2023-11-25T13:42:59;-3.50;99.90
12130;DHT22;6128;59.340;18.040;2023-11-25T13:45:26;-3.50;99.90
12130;DHT22;6128;59.340;18.040;2023-11-25T13:47:54;-3.50;99.90
12130;DHT22;6128;59.340;18.040;2023-11-25T13:50:22;-3.50;99.90
12130;DHT22;6128;59.340;18.040;2023-11-25T13:52:49;-3.60;99.90
12130;DHT22;6128;59.340;18.040;2023-11-25T13:55:17;-3.60;99.90
12130;DHT22;6128;59.340;18.040;2023-11-25T13:57:45;-3.60;99.90
12130;DHT22;6128;59.340;18.040;2023-11-25T14:00:13;-3.60;99.90
12130;DHT22;6128;59.340;18.040;2023-11-25T14:02:41;-3.60;99.90
12130;DHT22;6128;59.340;18.040;2023-11-25T14:05:08;-3.60;99.90
12130;DHT22;6128;59.340;18.040;2023-11-25T14:07:37;-3.60;99.90
12130;DHT22;6128;59.340;18.040;2023-11-25T14:10:08;-3.60;99.90
12130;DHT22;6128;59.340;18.040;2023-11-25T14:12:35;-3.60;99.90
12130;DHT22;6128;59.340;18.040;2023-11-25T14:15:06;-3.50;99.90
12130;DHT22;6128;59.340;18.040;2023-11-25T14:17:34;-3.50;99.90
12130;DHT22;6128;59.340;18.040;2023-11-25T14:20:02;-3.70;99.90
12130;DHT22;6128;59.340;18.040;2023-11-25T14:22:41;-3.70;99.90
12130;DHT22;6128;59.340;18.040;2023-11-25T14:25:10;-3.70;99.90
12130;DHT22;6128;59.340;18.040;2023-11-25T14:27:39;-3.70;99.90
12130;DHT22;6128;59.340;18.040;2023-11-25T14:30:09;-3.70;99.90
12130;DHT22;6128;59.340;18.040;2023-11-25T14:32:36;-3.70;99.90
12130;DHT22;6128;59.340;18.040;2023-11-25T14:35:05;-3.70;99.90
12130;DHT22;6128;59.340;18.040;2023-11-25T14:37:33;-3.60;99.90
12130;DHT22;6128;59.340;18.040;2023-11-25T14:40:01;-3.60;99.90
12130;DHT22;6128;59.340;18.040;2023-11-25T14:42:28;-3.60;99.90
12130;DHT22;6128;59.340;18.040;2023-11-25T14:44:56;-3.60;99.90
12130;DHT22;6128;59.340;18.040;2023-11-25T14:47:25;-3.60;99.90
12130;DHT22;6128;59.340;18.040;2023-11-25T14:49:52;-3.50;99.90
12130;DHT22;6128;59.340;18.040;2023-11-25T14:52:19;-3.50;99.90
12130;DHT22;6128;59.340;18.040;2023-11-25T14:54:47;-3.40;99.90
12130;DHT22;6128;59.340;18.040;2023-11-25T14:57:14;-3.40;99.90
12130;DHT22;6128;59.340;18.040;2023-11-25T14:59:42;-3.40;99.90
12130;DHT22;6128;59.340;18.040;2023-11-25T15:02:09;-3.40;99.90
12130;DHT22;6128;59.340;18.040;2023-11-25T15:04:38;-3.50;99.90
12130;DHT22;6128;59.340;18.040;2023-11-25T15:07:05;-3.40;99.90
12130;DHT22;6128;59.340;18.040;2023-11-25T15:09:32;-3.50;99.90
12130;DHT22;6128;59.340;18.040;2023-11-25T15:11:59;-3.40;99.90
12130;DHT22;6128;59.340;18.040;2023-11-25T15:14:27;-3.40;99.90
12130;DHT22;6128;59.340;18.040;2023-11-25T15:16:54;-3.40;99.90
12130;DHT22;6128;59.340;18.040;2023-11-25T15:19:21;-3.50;99.90
12130;DHT22;6128;59.340;18.040;2023-11-25T15:21:51;-3.50;99.90
12130;DHT22;6128;59.340;18.040;2023-11-25T15:24:19;-3.50;99.90
12130;DHT22;6128;59.340;18.040;2023-11-25T15:26:46;-3.50;99.90
12130;DHT22;6128;59.340;18.040;2023-11-25T15:29:15;-3.50;99.90
12130;DHT22;6128;59.340;18.040;2023-11-25T15:31:43;-3.40;99.90
12130;DHT22;6128;59.340;18.040;2023-11-25T15:34:11;-3.40;99.90
12130;DHT22;6128;59.340;18.040;2023-11-25T15:36:38;-3.40;99.90
12130;DHT22;6128;59.340;18.040;2023-11-25T15:39:07;-3.40;99.90